sensor_id;sensor_type;location;lat;lon;timestamp;P1;durP1;ratioP1;P2;durP2;ratioP2
24585;SDS011;12743;52.262;6.172;2024-03-17T00:01:00;13.02;;;4.20;;
24585;SDS011;12743;52.262;6.172;2024-03-17T00:03:29;13.88;;;4.28;;
24585;SDS011;12743;52.262;6.172;2024-03-17T00:05:56;10.15;;;4.40;;
24585;SDS011;12743;52.262;6.172;2024-03-17T00:08:25;9.57;;;4.70;;
24585;SDS011;12743;52.262;6.172;2024-03-17T00:10:55;12.05;;;4.53;;
24585;SDS011;12743;52.262;6.172;2024-03-17T00:13:21;15.25;;;5.68;;
24585;SDS011;12743;52.262;6.172;2024-03-17T00:15:50;13.07;;;5.30;;
24585;SDS011;12743;52.262;6.172;2024-03-17T00:18:16;13.38;;;4.90;;
24585;SDS011;12743;52.262;6.172;2024-03-17T00:20:42;11.20;;;5.10;;
24585;SDS011;12743;52.262;6.172;2024-03-17T00:23:08;13.13;;;4.50;;
24585;SDS011;12743;52.262;6.172;2024-03-17T00:25:37;13.23;;;5.55;;
24585;SDS011;12743;52.262;6.172;2024-03-17T00:28:03;14.48;;;4.90;;
24585;SDS011;12743;52.262;6.172;2024-03-17T00:30:29;10.07;;;4.80;;
24585;SDS011;12743;52.262;6.172;2024-03-17T00:32:56;10.55;;;5.13;;
24585;SDS011;12743;52.262;6.172;2024-03-17T00:35:25;12.65;;;5.22;;
24585;SDS011;12743;52.262;6.172;2024-03-17T00:37:51;12.32;;;5.28;;
24585;SDS011;12743;52.262;6.172;2024-03-17T00:40:18;12.95;;;5.80;;
24585;SDS011;12743;52.262;6.172;2024-03-17T00:42:45;10.77;;;5.07;;
24585;SDS011;12743;52.262;6.172;2024-03-17T00:45:11;9.88;;;5.30;;
24585;SDS011;12743;52.262;6.172;2024-03-17T00:47:37;13.00;;;5.50;;
24585;SDS011;12743;52.262;6.172;2024-03-17T00:50:03;12.30;;;5.50;;
24585;SDS011;12743;52.262;6.172;2024-03-17T00:52:30;13.05;;;5.68;;
24585;SDS011;12743;52.262;6.172;2024-03-17T00:54:56;13.43;;;5.05;;
24585;SDS011;12743;52.262;6.172;2024-03-17T00:57:22;13.48;;;5.10;;
24585;SDS011;12743;52.262;6.172;2024-03-17T00:59:48;13.47;;;5.63;;
24585;SDS011;12743;52.262;6.172;2024-03-17T01:02:15;12.50;;;5.30;;
24585;SDS011;12743;52.262;6.172;2024-03-17T01:04:43;10.20;;;4.55;;
24585;SDS011;12743;52.262;6.172;2024-03-17T01:07:09;11.33;;;5.00;;
24585;SDS011;12743;52.262;6.172;2024-03-17T01:09:35;15.52;;;4.80;;
24585;SDS011;12743;52.262;6.172;2024-03-17T01:12:01;11.45;;;4.85;;
24585;SDS011;12743;52.262;6.172;2024-03-17T01:14:28;10.52;;;4.70;;
24585;SDS011;12743;52.262;6.172;2024-03-17T01:16:55;8.77;;;4.38;;
24585;SDS011;12743;52.262;6.172;2024-03-17T01:19:21;11.00;;;4.37;;
24585;SDS011;12743;52.262;6.172;2024-03-17T01:21:47;7.78;;;4.03;;
24585;SDS011;12743;52.262;6.172;2024-03-17T01:24:13;11.13;;;3.90;;
24585;SDS011;12743;52.262;6.172;2024-03-17T01:26:39;9.47;;;3.90;;
24585;SDS011;12743;52.262;6.172;2024-03-17T01:29:04;10.60;;;4.32;;
24585;SDS011;12743;52.262;6.172;2024-03-17T01:31:30;9.40;;;4.10;;
24585;SDS011;12743;52.262;6.172;2024-03-17T01:33:56;11.52;;;4.47;;
24585;SDS011;12743;52.262;6.172;2024-03-17T01:36:22;9.27;;;4.23;;
24585;SDS011;12743;52.262;6.172;2024-03-17T01:38:48;13.05;;;5.30;;
24585;SDS011;12743;52.262;6.172;2024-03-17T01:41:15;11.75;;;4.57;;
24585;SDS011;12743;52.262;6.172;2024-03-17T01:43:41;13.77;;;5.27;;
24585;SDS011;12743;52.262;6.172;2024-03-17T01:46:09;13.18;;;5.38;;
24585;SDS011;12743;52.262;6.172;2024-03-17T01:48:38;12.77;;;5.30;;
24585;SDS011;12743;52.262;6.172;2024-03-17T01:51:04;13.23;;;5.23;;
24585;SDS011;12743;52.262;6.172;2024-03-17T01:53:30;14.05;;;5.72;;
24585;SDS011;12743;52.262;6.172;2024-03-17T01:55:57;14.02;;;5.30;;
24585;SDS011;12743;52.262;6.172;2024-03-17T01:58:25;12.82;;;5.35;;
24585;SDS011;12743;52.262;6.172;2024-03-17T02:00:51;16.50;;;4.95;;
24585;SDS011;12743;52.262;6.172;2024-03-17T02:03:17;12.90;;;5.30;;
24585;SDS011;12743;52.262;6.172;2024-03-17T02:05:43;14.95;;;5.50;;
24585;SDS011;12743;52.262;6.172;2024-03-17T02:08:10;15.48;;;5.28;;
24585;SDS011;12743;52.262;6.172;2024-03-17T02:10:37;14.68;;;5.20;;
24585;SDS011;12743;52.262;6.172;2024-03-17T02:13:03;11.05;;;4.97;;
24585;SDS011;12743;52.262;6.172;2024-03-17T02:15:29;12.47;;;5.07;;
24585;SDS011;12743;52.262;6.172;2024-03-17T02:17:56;13.27;;;5.40;;
24585;SDS011;12743;52.262;6.172;2024-03-17T02:20:22;9.75;;;4.90;;
24585;SDS011;12743;52.262;6.172;2024-03-17T02:23:08;14.52;;;5.07;;
24585;SDS011;12743;52.262;6.172;2024-03-17T02:25:33;11.13;;;4.60;;
24585;SDS011;12743;52.262;6.172;2024-03-17T02:28:00;14.18;;;4.95;;
24585;SDS011;12743;52.262;6.172;2024-03-17T02:30:26;11.85;;;4.32;;
24585;SDS011;12743;52.262;6.172;2024-03-17T02:32:52;10.23;;;4.60;;
24585;SDS011;12743;52.262;6.172;2024-03-17T02:35:18;12.88;;;4.53;;
24585;SDS011;12743;52.262;6.172;2024-03-17T02:37:44;11.15;;;4.90;;
24585;SDS011;12743;52.262;6.172;2024-03-17T02:40:10;10.67;;;4.20;;
24585;SDS011;12743;52.262;6.172;2024-03-17T02:42:36;8.90;;;4.22;;
24585;SDS011;12743;52.262;6.172;2024-03-17T02:45:04;11.35;;;3.78;;
24585;SDS011;12743;52.262;6.172;2024-03-17T02:47:31;8.70;;;4.22;;
24585;SDS011;12743;52.262;6.172;2024-03-17T02:49:57;12.23;;;4.30;;
24585;SDS011;12743;52.262;6.172;2024-03-17T02:52:23;11.43;;;4.68;;
24585;SDS011;12743;52.262;6.172;2024-03-17T02:54:49;14.77;;;3.88;;
24585;SDS011;12743;52.262;6.172;2024-03-17T02:57:15;9.57;;;3.97;;
24585;SDS011;12743;52.262;6.172;2024-03-17T02:59:41;13.73;;;4.60;;
24585;SDS011;12743;52.262;6.172;2024-03-17T03:02:08;10.80;;;3.92;;
24585;SDS011;12743;52.262;6.172;2024-03-17T03:04:34;13.20;;;4.50;;
24585;SDS011;12743;52.262;6.172;2024-03-17T03:07:00;10.35;;;4.50;;
24585;SDS011;12743;52.262;6.172;2024-03-17T03:09:26;11.00;;;4.28;;
24585;SDS011;12743;52.262;6.172;2024-03-17T03:11:59;11.50;;;4.10;;
24585;SDS011;12743;52.262;6.172;2024-03-17T03:14:26;8.23;;;3.95;;
24585;SDS011;12743;52.262;6.172;2024-03-17T03:16:51;9.80;;;4.50;;
24585;SDS011;12743;52.262;6.172;2024-03-17T03:19:18;8.90;;;3.95;;
24585;SDS011;12743;52.262;6.172;2024-03-17T03:21:44;15.07;;;5.28;;
24585;SDS011;12743;52.262;6.172;2024-03-17T03:24:11;9.05;;;3.85;;
24585;SDS011;12743;52.262;6.172;2024-03-17T03:26:37;11.03;;;3.80;;
24585;SDS011;12743;52.262;6.172;2024-03-17T03:29:03;10.05;;;3.90;;
24585;SDS011;12743;52.262;6.172;2024-03-17T03:31:31;12.70;;;3.80;;
24585;SDS011;12743;52.262;6.172;2024-03-17T03:33:57;11.63;;;3.75;;
24585;SDS011;12743;52.262;6.172;2024-03-17T03:36:26;9.25;;;3.80;;
24585;SDS011;12743;52.262;6.172;2024-03-17T03:38:53;10.32;;;3.92;;
24585;SDS011;12743;52.262;6.172;2024-03-17T03:41:19;12.45;;;3.97;;
24585;SDS011;12743;52.262;6.172;2024-03-17T03:43:45;13.05;;;4.57;;
24585;SDS011;12743;52.262;6.172;2024-03-17T03:46:13;11.38;;;4.15;;
24585;SDS011;12743;52.262;6.172;2024-03-17T03:48:39;17.77;;;4.17;;
24585;SDS011;12743;52.262;6.172;2024-03-17T03:51:06;11.40;;;4.35;;
24585;SDS011;12743;52.262;6.172;2024-03-17T03:53:35;10.23;;;4.15;;
24585;SDS011;12743;52.262;6.172;2024-03-17T03:56:03;10.18;;;3.83;;
24585;SDS011;12743;52.262;6.172;2024-03-17T03:58:38;10.48;;;4.40;;
24585;SDS011;12743;52.262;6.172;2024-03-17T04:01:05;9.40;;;4.20;;
24585;SDS011;12743;52.262;6.172;2024-03-17T04:03:34;11.32;;;5.05;;
24585;SDS011;12743;52.262;6.172;2024-03-17T04:06:02;13.60;;;4.57;;
24585;SDS011;12743;52.262;6.172;2024-03-17T04:08:32;11.75;;;4.63;;
24585;SDS011;12743;52.262;6.172;2024-03-17T04:11:02;12.48;;;4.93;;
24585;SDS011;12743;52.262;6.172;2024-03-17T04:13:29;8.77;;;3.97;;
24585;SDS011;12743;52.262;6.172;2024-03-17T04:15:55;12.00;;;5.13;;
24585;SDS011;12743;52.262;6.172;2024-03-17T04:18:23;12.00;;;4.28;;
24585;SDS011;12743;52.262;6.172;2024-03-17T04:20:51;10.90;;;4.45;;
24585;SDS011;12743;52.262;6.172;2024-03-17T04:23:20;14.50;;;5.32;;
24585;SDS011;12743;52.262;6.172;2024-03-17T04:25:47;14.27;;;5.20;;
24585;SDS011;12743;52.262;6.172;2024-03-17T04:28:14;12.27;;;5.50;;
24585;SDS011;12743;52.262;6.172;2024-03-17T04:30:40;12.50;;;4.55;;
24585;SDS011;12743;52.262;6.172;2024-03-17T04:33:08;13.95;;;4.90;;
24585;SDS011;12743;52.262;6.172;2024-03-17T04:35:37;11.88;;;4.72;;
24585;SDS011;12743;52.262;6.172;2024-03-17T04:38:04;10.90;;;4.73;;
24585;SDS011;12743;52.262;6.172;2024-03-17T04:40:34;12.80;;;5.18;;
24585;SDS011;12743;52.262;6.172;2024-03-17T04:43:01;10.55;;;4.72;;
24585;SDS011;12743;52.262;6.172;2024-03-17T04:45:27;12.23;;;6.00;;
24585;SDS011;12743;52.262;6.172;2024-03-17T04:47:52;13.40;;;5.37;;
24585;SDS011;12743;52.262;6.172;2024-03-17T04:50:18;11.30;;;5.78;;
24585;SDS011;12743;52.262;6.172;2024-03-17T04:52:44;12.18;;;5.40;;
24585;SDS011;12743;52.262;6.172;2024-03-17T04:55:10;10.87;;;5.70;;
24585;SDS011;12743;52.262;6.172;2024-03-17T04:57:36;10.38;;;5.72;;
24585;SDS011;12743;52.262;6.172;2024-03-17T05:00:02;15.15;;;5.28;;
24585;SDS011;12743;52.262;6.172;2024-03-17T05:02:32;18.02;;;6.05;;
24585;SDS011;12743;52.262;6.172;2024-03-17T05:04:58;13.65;;;5.60;;
24585;SDS011;12743;52.262;6.172;2024-03-17T05:07:24;14.23;;;5.40;;
24585;SDS011;12743;52.262;6.172;2024-03-17T05:09:50;11.05;;;5.32;;
24585;SDS011;12743;52.262;6.172;2024-03-17T05:12:16;10.93;;;4.75;;
24585;SDS011;12743;52.262;6.172;2024-03-17T05:14:42;13.60;;;5.63;;
24585;SDS011;12743;52.262;6.172;2024-03-17T05:17:08;12.18;;;5.18;;
24585;SDS011;12743;52.262;6.172;2024-03-17T05:19:33;11.43;;;5.40;;
24585;SDS011;12743;52.262;6.172;2024-03-17T05:21:59;12.18;;;5.72;;
24585;SDS011;12743;52.262;6.172;2024-03-17T05:24:25;12.70;;;5.70;;
24585;SDS011;12743;52.262;6.172;2024-03-17T05:26:51;12.27;;;5.30;;
24585;SDS011;12743;52.262;6.172;2024-03-17T05:29:17;14.75;;;5.40;;
24585;SDS011;12743;52.262;6.172;2024-03-17T05:31:43;11.73;;;5.13;;
24585;SDS011;12743;52.262;6.172;2024-03-17T05:34:09;16.48;;;5.80;;
24585;SDS011;12743;52.262;6.172;2024-03-17T05:36:36;18.98;;;6.07;;
24585;SDS011;12743;52.262;6.172;2024-03-17T05:39:02;11.27;;;5.43;;
24585;SDS011;12743;52.262;6.172;2024-03-17T05:41:29;9.97;;;5.53;;
24585;SDS011;12743;52.262;6.172;2024-03-17T05:43:54;12.05;;;6.15;;
24585;SDS011;12743;52.262;6.172;2024-03-17T05:46:24;12.73;;;5.70;;
24585;SDS011;12743;52.262;6.172;2024-03-17T05:48:53;15.63;;;5.85;;
24585;SDS011;12743;52.262;6.172;2024-03-17T05:51:20;15.50;;;6.30;;
24585;SDS011;12743;52.262;6.172;2024-03-17T05:53:46;11.38;;;5.72;;
24585;SDS011;12743;52.262;6.172;2024-03-17T05:56:12;16.13;;;6.72;;
24585;SDS011;12743;52.262;6.172;2024-03-17T05:58:38;12.10;;;6.13;;
24585;SDS011;12743;52.262;6.172;2024-03-17T06:01:05;14.13;;;6.93;;
24585;SDS011;12743;52.262;6.172;2024-03-17T06:03:34;12.50;;;5.70;;
24585;SDS011;12743;52.262;6.172;2024-03-17T06:06:04;13.35;;;6.25;;
24585;SDS011;12743;52.262;6.172;2024-03-17T06:08:33;12.95;;;6.13;;
24585;SDS011;12743;52.262;6.172;2024-03-17T06:10:59;13.32;;;6.32;;
24585;SDS011;12743;52.262;6.172;2024-03-17T06:13:26;15.60;;;7.20;;
24585;SDS011;12743;52.262;6.172;2024-03-17T06:15:53;12.02;;;5.97;;
24585;SDS011;12743;52.262;6.172;2024-03-17T06:18:19;12.48;;;6.38;;
24585;SDS011;12743;52.262;6.172;2024-03-17T06:20:46;14.90;;;6.68;;
24585;SDS011;12743;52.262;6.172;2024-03-17T06:23:13;14.68;;;6.78;;
24585;SDS011;12743;52.262;6.172;2024-03-17T06:25:40;16.10;;;6.30;;
24585;SDS011;12743;52.262;6.172;2024-03-17T06:28:09;15.30;;;6.85;;
24585;SDS011;12743;52.262;6.172;2024-03-17T06:30:45;14.63;;;6.25;;
24585;SDS011;12743;52.262;6.172;2024-03-17T06:33:19;13.68;;;6.60;;
24585;SDS011;12743;52.262;6.172;2024-03-17T06:35:45;15.25;;;6.78;;
24585;SDS011;12743;52.262;6.172;2024-03-17T06:38:14;11.97;;;6.43;;
24585;SDS011;12743;52.262;6.172;2024-03-17T06:40:41;13.63;;;6.93;;
24585;SDS011;12743;52.262;6.172;2024-03-17T06:43:07;14.02;;;6.78;;
24585;SDS011;12743;52.262;6.172;2024-03-17T06:45:33;16.92;;;7.10;;
24585;SDS011;12743;52.262;6.172;2024-03-17T06:47:59;15.00;;;6.63;;
24585;SDS011;12743;52.262;6.172;2024-03-17T06:50:25;14.90;;;7.18;;
24585;SDS011;12743;52.262;6.172;2024-03-17T06:52:51;17.52;;;7.40;;
24585;SDS011;12743;52.262;6.172;2024-03-17T06:55:17;15.73;;;7.40;;
24585;SDS011;12743;52.262;6.172;2024-03-17T06:57:44;15.13;;;7.25;;
24585;SDS011;12743;52.262;6.172;2024-03-17T07:00:10;14.02;;;7.05;;
24585;SDS011;12743;52.262;6.172;2024-03-17T07:02:42;16.05;;;7.80;;
24585;SDS011;12743;52.262;6.172;2024-03-17T07:05:12;15.18;;;6.72;;
24585;SDS011;12743;52.262;6.172;2024-03-17T07:07:42;14.87;;;6.70;;
24585;SDS011;12743;52.262;6.172;2024-03-17T07:10:08;14.70;;;6.85;;
24585;SDS011;12743;52.262;6.172;2024-03-17T07:12:36;20.25;;;7.95;;
24585;SDS011;12743;52.262;6.172;2024-03-17T07:15:02;17.52;;;7.53;;
24585;SDS011;12743;52.262;6.172;2024-03-17T07:17:28;17.95;;;7.65;;
24585;SDS011;12743;52.262;6.172;2024-03-17T07:19:54;15.73;;;7.00;;
24585;SDS011;12743;52.262;6.172;2024-03-17T07:22:20;16.17;;;7.70;;
24585;SDS011;12743;52.262;6.172;2024-03-17T07:24:48;15.63;;;7.13;;
24585;SDS011;12743;52.262;6.172;2024-03-17T07:27:17;16.20;;;7.50;;
24585;SDS011;12743;52.262;6.172;2024-03-17T07:29:43;17.40;;;7.15;;
24585;SDS011;12743;52.262;6.172;2024-03-17T07:32:09;17.60;;;7.20;;
24585;SDS011;12743;52.262;6.172;2024-03-17T07:34:34;15.35;;;6.95;;
24585;SDS011;12743;52.262;6.172;2024-03-17T07:37:01;12.73;;;6.88;;
24585;SDS011;12743;52.262;6.172;2024-03-17T07:39:31;14.57;;;7.37;;
24585;SDS011;12743;52.262;6.172;2024-03-17T07:41:58;14.13;;;7.07;;
24585;SDS011;12743;52.262;6.172;2024-03-17T07:44:25;16.45;;;6.93;;
24585;SDS011;12743;52.262;6.172;2024-03-17T07:46:51;18.13;;;7.30;;
24585;SDS011;12743;52.262;6.172;2024-03-17T07:49:22;15.93;;;7.07;;
24585;SDS011;12743;52.262;6.172;2024-03-17T07:51:48;13.53;;;6.70;;
24585;SDS011;12743;52.262;6.172;2024-03-17T07:54:14;17.13;;;7.55;;
24585;SDS011;12743;52.262;6.172;2024-03-17T07:56:40;15.60;;;7.27;;
24585;SDS011;12743;52.262;6.172;2024-03-17T07:59:05;13.68;;;7.35;;
24585;SDS011;12743;52.262;6.172;2024-03-17T08:01:38;12.63;;;6.10;;
24585;SDS011;12743;52.262;6.172;2024-03-17T08:04:04;13.93;;;7.20;;
24585;SDS011;12743;52.262;6.172;2024-03-17T08:06:30;14.03;;;7.00;;
24585;SDS011;12743;52.262;6.172;2024-03-17T08:08:56;13.52;;;6.68;;
24585;SDS011;12743;52.262;6.172;2024-03-17T08:11:22;12.15;;;6.78;;
24585;SDS011;12743;52.262;6.172;2024-03-17T08:13:48;11.93;;;5.68;;
24585;SDS011;12743;52.262;6.172;2024-03-17T08:16:14;14.90;;;6.53;;
24585;SDS011;12743;52.262;6.172;2024-03-17T08:18:41;11.77;;;6.53;;
24585;SDS011;12743;52.262;6.172;2024-03-17T08:21:06;16.65;;;7.18;;
24585;SDS011;12743;52.262;6.172;2024-03-17T08:23:33;12.53;;;6.40;;
24585;SDS011;12743;52.262;6.172;2024-03-17T08:26:01;15.77;;;7.85;;
24585;SDS011;12743;52.262;6.172;2024-03-17T08:28:27;14.25;;;6.95;;
24585;SDS011;12743;52.262;6.172;2024-03-17T08:30:57;13.67;;;6.80;;
24585;SDS011;12743;52.262;6.172;2024-03-17T08:33:24;14.57;;;6.57;;
24585;SDS011;12743;52.262;6.172;2024-03-17T08:38:20;12.68;;;5.95;;
24585;SDS011;12743;52.262;6.172;2024-03-17T08:40:46;13.67;;;6.10;;
24585;SDS011;12743;52.262;6.172;2024-03-17T08:43:12;11.95;;;6.43;;
24585;SDS011;12743;52.262;6.172;2024-03-17T08:45:38;13.38;;;6.55;;
24585;SDS011;12743;52.262;6.172;2024-03-17T08:48:04;13.52;;;6.10;;
24585;SDS011;12743;52.262;6.172;2024-03-17T08:50:31;8.97;;;5.00;;
24585;SDS011;12743;52.262;6.172;2024-03-17T08:52:59;11.68;;;5.47;;
24585;SDS011;12743;52.262;6.172;2024-03-17T08:55:24;11.63;;;5.15;;
24585;SDS011;12743;52.262;6.172;2024-03-17T08:57:50;9.33;;;4.63;;
24585;SDS011;12743;52.262;6.172;2024-03-17T09:00:16;10.80;;;4.97;;
24585;SDS011;12743;52.262;6.172;2024-03-17T09:02:42;10.48;;;4.80;;
24585;SDS011;12743;52.262;6.172;2024-03-17T09:05:08;16.67;;;5.33;;
24585;SDS011;12743;52.262;6.172;2024-03-17T09:07:33;11.25;;;4.80;;
24585;SDS011;12743;52.262;6.172;2024-03-17T09:09:59;11.97;;;4.83;;
24585;SDS011;12743;52.262;6.172;2024-03-17T09:12:25;10.55;;;4.65;;
24585;SDS011;12743;52.262;6.172;2024-03-17T09:14:53;8.45;;;4.18;;
24585;SDS011;12743;52.262;6.172;2024-03-17T09:17:19;9.98;;;4.88;;
24585;SDS011;12743;52.262;6.172;2024-03-17T09:19:46;9.70;;;4.40;;
24585;SDS011;12743;52.262;6.172;2024-03-17T09:22:13;9.57;;;4.67;;
24585;SDS011;12743;52.262;6.172;2024-03-17T09:24:39;8.80;;;4.40;;
24585;SDS011;12743;52.262;6.172;2024-03-17T09:27:06;8.52;;;3.63;;
24585;SDS011;12743;52.262;6.172;2024-03-17T09:29:32;7.38;;;3.70;;
24585;SDS011;12743;52.262;6.172;2024-03-17T09:31:59;9.68;;;3.67;;
24585;SDS011;12743;52.262;6.172;2024-03-17T09:34:24;8.57;;;4.13;;
24585;SDS011;12743;52.262;6.172;2024-03-17T09:36:50;9.00;;;3.92;;
24585;SDS011;12743;52.262;6.172;2024-03-17T09:39:16;8.83;;;3.93;;
24585;SDS011;12743;52.262;6.172;2024-03-17T09:41:42;11.70;;;3.90;;
24585;SDS011;12743;52.262;6.172;2024-03-17T09:44:11;6.70;;;3.35;;
24585;SDS011;12743;52.262;6.172;2024-03-17T09:46:39;7.85;;;3.00;;
24585;SDS011;12743;52.262;6.172;2024-03-17T09:49:07;8.55;;;3.42;;
24585;SDS011;12743;52.262;6.172;2024-03-17T09:51:38;7.47;;;4.00;;
24585;SDS011;12743;52.262;6.172;2024-03-17T09:54:06;7.72;;;3.22;;
24585;SDS011;12743;52.262;6.172;2024-03-17T09:56:46;8.05;;;3.15;;
24585;SDS011;12743;52.262;6.172;2024-03-17T09:59:12;10.77;;;3.67;;
24585;SDS011;12743;52.262;6.172;2024-03-17T10:01:38;9.30;;;3.60;;
24585;SDS011;12743;52.262;6.172;2024-03-17T10:04:04;9.63;;;3.90;;
24585;SDS011;12743;52.262;6.172;2024-03-17T10:06:30;8.10;;;3.27;;
24585;SDS011;12743;52.262;6.172;2024-03-17T10:08:57;6.85;;;3.65;;
24585;SDS011;12743;52.262;6.172;2024-03-17T10:11:24;7.72;;;3.35;;
24585;SDS011;12743;52.262;6.172;2024-03-17T10:14:05;9.55;;;3.63;;
24585;SDS011;12743;52.262;6.172;2024-03-17T10:16:34;7.90;;;3.60;;
24585;SDS011;12743;52.262;6.172;2024-03-17T10:19:07;7.67;;;3.63;;
24585;SDS011;12743;52.262;6.172;2024-03-17T10:21:36;9.65;;;3.65;;
24585;SDS011;12743;52.262;6.172;2024-03-17T10:29:27;7.30;;;3.53;;
24585;SDS011;12743;52.262;6.172;2024-03-17T10:31:56;7.93;;;3.60;;
24585;SDS011;12743;52.262;6.172;2024-03-17T10:34:24;7.60;;;3.53;;
24585;SDS011;12743;52.262;6.172;2024-03-17T10:39:38;10.18;;;3.70;;
24585;SDS011;12743;52.262;6.172;2024-03-17T10:42:06;7.82;;;3.60;;
24585;SDS011;12743;52.262;6.172;2024-03-17T10:44:40;11.80;;;4.37;;
24585;SDS011;12743;52.262;6.172;2024-03-17T10:47:23;8.50;;;3.92;;
24585;SDS011;12743;52.262;6.172;2024-03-17T10:49:51;7.40;;;3.05;;
24585;SDS011;12743;52.262;6.172;2024-03-17T10:52:19;8.18;;;3.80;;
24585;SDS011;12743;52.262;6.172;2024-03-17T10:54:54;10.35;;;4.25;;
24585;SDS011;12743;52.262;6.172;2024-03-17T11:00:04;7.10;;;3.78;;
24585;SDS011;12743;52.262;6.172;2024-03-17T11:02:38;8.45;;;3.70;;
24585;SDS011;12743;52.262;6.172;2024-03-17T11:05:17;10.25;;;3.90;;
24585;SDS011;12743;52.262;6.172;2024-03-17T11:07:45;12.02;;;4.40;;
24585;SDS011;12743;52.262;6.172;2024-03-17T11:10:17;7.60;;;3.73;;
24585;SDS011;12743;52.262;6.172;2024-03-17T11:17:45;8.45;;;4.50;;
24585;SDS011;12743;52.262;6.172;2024-03-17T11:20:32;8.97;;;4.50;;
24585;SDS011;12743;52.262;6.172;2024-03-17T11:22:58;9.48;;;4.53;;
24585;SDS011;12743;52.262;6.172;2024-03-17T11:27:56;9.38;;;4.43;;
24585;SDS011;12743;52.262;6.172;2024-03-17T11:44:15;9.88;;;3.78;;
24585;SDS011;12743;52.262;6.172;2024-03-17T11:49:24;10.60;;;4.45;;
24585;SDS011;12743;52.262;6.172;2024-03-17T11:51:57;9.32;;;4.25;;
24585;SDS011;12743;52.262;6.172;2024-03-17T11:54:29;9.32;;;3.42;;
24585;SDS011;12743;52.262;6.172;2024-03-17T11:57:06;8.13;;;3.65;;
24585;SDS011;12743;52.262;6.172;2024-03-17T11:59:37;8.30;;;3.53;;
24585;SDS011;12743;52.262;6.172;2024-03-17T12:02:09;8.55;;;3.80;;
24585;SDS011;12743;52.262;6.172;2024-03-17T12:04:39;9.52;;;3.88;;
24585;SDS011;12743;52.262;6.172;2024-03-17T12:07:07;8.75;;;4.00;;
24585;SDS011;12743;52.262;6.172;2024-03-17T12:09:39;9.68;;;3.95;;
24585;SDS011;12743;52.262;6.172;2024-03-17T12:12:08;8.37;;;3.33;;
24585;SDS011;12743;52.262;6.172;2024-03-17T12:14:36;10.00;;;4.35;;
24585;SDS011;12743;52.262;6.172;2024-03-17T12:17:03;11.32;;;4.47;;
24585;SDS011;12743;52.262;6.172;2024-03-17T12:19:33;11.50;;;5.88;;
24585;SDS011;12743;52.262;6.172;2024-03-17T12:22:00;15.13;;;8.50;;
24585;SDS011;12743;52.262;6.172;2024-03-17T12:24:27;10.80;;;4.20;;
24585;SDS011;12743;52.262;6.172;2024-03-17T12:26:54;10.23;;;4.05;;
24585;SDS011;12743;52.262;6.172;2024-03-17T12:29:22;14.77;;;7.97;;
24585;SDS011;12743;52.262;6.172;2024-03-17T12:32:15;15.18;;;6.88;;
24585;SDS011;12743;52.262;6.172;2024-03-17T12:34:49;16.20;;;8.07;;
24585;SDS011;12743;52.262;6.172;2024-03-17T12:37:16;13.10;;;6.77;;
24585;SDS011;12743;52.262;6.172;2024-03-17T12:39:46;11.68;;;5.20;;
24585;SDS011;12743;52.262;6.172;2024-03-17T12:42:13;11.75;;;6.40;;
24585;SDS011;12743;52.262;6.172;2024-03-17T12:44:40;9.95;;;4.90;;
24585;SDS011;12743;52.262;6.172;2024-03-17T12:47:22;11.25;;;5.90;;
24585;SDS011;12743;52.262;6.172;2024-03-17T12:49:55;12.27;;;5.43;;
24585;SDS011;12743;52.262;6.172;2024-03-17T12:52:22;11.85;;;5.90;;
24585;SDS011;12743;52.262;6.172;2024-03-17T12:57:50;11.43;;;4.97;;
24585;SDS011;12743;52.262;6.172;2024-03-17T13:00:34;11.45;;;5.63;;
24585;SDS011;12743;52.262;6.172;2024-03-17T13:03:01;9.57;;;4.50;;
24585;SDS011;12743;52.262;6.172;2024-03-17T13:05:28;8.88;;;4.30;;
24585;SDS011;12743;52.262;6.172;2024-03-17T13:07:54;8.65;;;4.75;;
24585;SDS011;12743;52.262;6.172;2024-03-17T13:10:22;10.20;;;5.35;;
24585;SDS011;12743;52.262;6.172;2024-03-17T13:12:48;9.48;;;4.65;;
24585;SDS011;12743;52.262;6.172;2024-03-17T13:15:24;9.57;;;4.60;;
24585;SDS011;12743;52.262;6.172;2024-03-17T13:17:50;10.32;;;4.75;;
24585;SDS011;12743;52.262;6.172;2024-03-17T13:20:16;7.80;;;4.10;;
24585;SDS011;12743;52.262;6.172;2024-03-17T13:22:42;10.45;;;4.63;;
24585;SDS011;12743;52.262;6.172;2024-03-17T13:25:16;8.48;;;4.13;;
24585;SDS011;12743;52.262;6.172;2024-03-17T13:27:44;10.07;;;4.25;;
24585;SDS011;12743;52.262;6.172;2024-03-17T13:30:13;10.45;;;5.15;;
24585;SDS011;12743;52.262;6.172;2024-03-17T13:32:49;9.17;;;4.00;;
24585;SDS011;12743;52.262;6.172;2024-03-17T13:35:22;8.20;;;4.25;;
24585;SDS011;12743;52.262;6.172;2024-03-17T13:37:49;10.30;;;5.00;;
24585;SDS011;12743;52.262;6.172;2024-03-17T13:40:17;8.60;;;4.30;;
24585;SDS011;12743;52.262;6.172;2024-03-17T13:42:45;10.90;;;5.70;;
24585;SDS011;12743;52.262;6.172;2024-03-17T13:45:11;9.27;;;4.70;;
24585;SDS011;12743;52.262;6.172;2024-03-17T13:47:38;11.65;;;4.72;;
24585;SDS011;12743;52.262;6.172;2024-03-17T13:50:04;10.48;;;4.75;;
24585;SDS011;12743;52.262;6.172;2024-03-17T13:52:36;11.80;;;4.18;;
24585;SDS011;12743;52.262;6.172;2024-03-17T13:55:03;10.63;;;4.53;;
24585;SDS011;12743;52.262;6.172;2024-03-17T13:57:35;9.30;;;5.07;;
24585;SDS011;12743;52.262;6.172;2024-03-17T14:00:00;11.93;;;5.30;;
24585;SDS011;12743;52.262;6.172;2024-03-17T14:02:26;10.55;;;5.05;;
24585;SDS011;12743;52.262;6.172;2024-03-17T14:04:52;10.60;;;4.80;;
24585;SDS011;12743;52.262;6.172;2024-03-17T14:07:18;9.48;;;4.80;;
24585;SDS011;12743;52.262;6.172;2024-03-17T14:09:43;11.43;;;4.43;;
24585;SDS011;12743;52.262;6.172;2024-03-17T14:12:09;13.70;;;4.28;;
24585;SDS011;12743;52.262;6.172;2024-03-17T14:14:35;9.85;;;3.90;;
24585;SDS011;12743;52.262;6.172;2024-03-17T14:17:01;10.37;;;4.17;;
24585;SDS011;12743;52.262;6.172;2024-03-17T14:19:27;8.30;;;4.40;;
24585;SDS011;12743;52.262;6.172;2024-03-17T14:21:52;9.77;;;4.30;;
24585;SDS011;12743;52.262;6.172;2024-03-17T14:24:18;9.02;;;4.40;;
24585;SDS011;12743;52.262;6.172;2024-03-17T14:26:44;8.93;;;5.10;;
24585;SDS011;12743;52.262;6.172;2024-03-17T14:29:09;9.50;;;4.70;;
24585;SDS011;12743;52.262;6.172;2024-03-17T14:31:35;10.47;;;4.70;;
24585;SDS011;12743;52.262;6.172;2024-03-17T14:34:03;8.52;;;4.10;;
24585;SDS011;12743;52.262;6.172;2024-03-17T14:36:32;11.23;;;5.35;;
24585;SDS011;12743;52.262;6.172;2024-03-17T14:38:59;9.77;;;5.40;;
24585;SDS011;12743;52.262;6.172;2024-03-17T14:41:29;9.65;;;4.47;;
24585;SDS011;12743;52.262;6.172;2024-03-17T14:43:55;10.67;;;4.33;;
24585;SDS011;12743;52.262;6.172;2024-03-17T14:46:23;11.50;;;4.60;;
24585;SDS011;12743;52.262;6.172;2024-03-17T14:48:53;9.98;;;4.55;;
24585;SDS011;12743;52.262;6.172;2024-03-17T14:51:19;12.23;;;6.43;;
24585;SDS011;12743;52.262;6.172;2024-03-17T14:53:48;17.80;;;7.60;;
24585;SDS011;12743;52.262;6.172;2024-03-17T14:56:19;13.03;;;5.87;;
24585;SDS011;12743;52.262;6.172;2024-03-17T14:58:45;10.02;;;4.75;;
24585;SDS011;12743;52.262;6.172;2024-03-17T15:01:14;10.23;;;4.55;;
24585;SDS011;12743;52.262;6.172;2024-03-17T15:03:40;9.40;;;4.60;;
24585;SDS011;12743;52.262;6.172;2024-03-17T15:06:09;12.87;;;6.00;;
24585;SDS011;12743;52.262;6.172;2024-03-17T15:08:37;11.50;;;4.82;;
24585;SDS011;12743;52.262;6.172;2024-03-17T15:11:02;11.95;;;5.20;;
24585;SDS011;12743;52.262;6.172;2024-03-17T15:13:28;11.30;;;5.40;;
24585;SDS011;12743;52.262;6.172;2024-03-17T15:15:54;9.77;;;5.15;;
24585;SDS011;12743;52.262;6.172;2024-03-17T15:18:20;11.03;;;5.57;;
24585;SDS011;12743;52.262;6.172;2024-03-17T15:20:53;10.60;;;6.22;;